sensor_id;sensor_type;location;lat;lon;timestamp;P1;durP1;ratioP1;P2;durP2;ratioP2
51738;SDS011;37815;52.692;6.226;2024-01-15T00:04:43;0.88;;;0.43;;
51738;SDS011;37815;52.692;6.226;2024-01-15T00:09:44;1.48;;;0.30;;
51738;SDS011;37815;52.692;6.226;2024-01-15T00:14:44;1.90;;;0.40;;
51738;SDS011;37815;52.692;6.226;2024-01-15T00:19:45;1.58;;;0.32;;
51738;SDS011;37815;52.692;6.226;2024-01-15T00:24:45;1.90;;;0.55;;
51738;SDS011;37815;52.692;6.226;2024-01-15T00:29:46;2.30;;;0.90;;
51738;SDS011;37815;52.692;6.226;2024-01-15T00:34:46;1.60;;;0.50;;
51738;SDS011;37815;52.692;6.226;2024-01-15T00:39:47;1.13;;;0.30;;
51738;SDS011;37815;52.692;6.226;2024-01-15T00:44:48;1.17;;;0.70;;
51738;SDS011;37815;52.692;6.226;2024-01-15T00:49:48;1.45;;;0.70;;
51738;SDS011;37815;52.692;6.226;2024-01-15T00:54:49;2.60;;;0.60;;
51738;SDS011;37815;52.692;6.226;2024-01-15T00:59:49;1.00;;;0.40;;
51738;SDS011;37815;52.692;6.226;2024-01-15T01:04:50;2.80;;;0.60;;
51738;SDS011;37815;52.692;6.226;2024-01-15T01:09:50;1.00;;;0.40;;
51738;SDS011;37815;52.692;6.226;2024-01-15T01:14:51;2.45;;;0.50;;
51738;SDS011;37815;52.692;6.226;2024-01-15T01:19:52;1.30;;;0.35;;
51738;SDS011;37815;52.692;6.226;2024-01-15T01:24:52;0.75;;;0.40;;
51738;SDS011;37815;52.692;6.226;2024-01-15T01:29:53;1.15;;;0.35;;
51738;SDS011;37815;52.692;6.226;2024-01-15T01:34:53;1.23;;;0.28;;
51738;SDS011;37815;52.692;6.226;2024-01-15T01:39:54;0.75;;;0.32;;
51738;SDS011;37815;52.692;6.226;2024-01-15T01:44:55;0.85;;;0.30;;
51738;SDS011;37815;52.692;6.226;2024-01-15T01:49:55;1.88;;;0.40;;
51738;SDS011;37815;52.692;6.226;2024-01-15T01:54:56;0.52;;;0.20;;
51738;SDS011;37815;52.692;6.226;2024-01-15T01:59:58;0.98;;;0.30;;
51738;SDS011;37815;52.692;6.226;2024-01-15T02:04:59;1.67;;;0.40;;
51738;SDS011;37815;52.692;6.226;2024-01-15T02:10:00;1.92;;;0.30;;
51738;SDS011;37815;52.692;6.226;2024-01-15T02:15:00;1.05;;;0.32;;
51738;SDS011;37815;52.692;6.226;2024-01-15T02:20:01;1.90;;;0.50;;
51738;SDS011;37815;52.692;6.226;2024-01-15T02:25:02;0.35;;;0.20;;
51738;SDS011;37815;52.692;6.226;2024-01-15T02:30:03;1.38;;;0.30;;
51738;SDS011;37815;52.692;6.226;2024-01-15T02:35:06;0.70;;;0.30;;
51738;SDS011;37815;52.692;6.226;2024-01-15T02:40:07;1.90;;;0.40;;
51738;SDS011;37815;52.692;6.226;2024-01-15T02:45:08;1.25;;;0.25;;
51738;SDS011;37815;52.692;6.226;2024-01-15T02:50:09;0.43;;;0.30;;
51738;SDS011;37815;52.692;6.226;2024-01-15T02:55:09;0.90;;;0.32;;
51738;SDS011;37815;52.692;6.226;2024-01-15T03:00:10;1.25;;;0.30;;
51738;SDS011;37815;52.692;6.226;2024-01-15T03:05:14;2.13;;;0.30;;
51738;SDS011;37815;52.692;6.226;2024-01-15T03:10:14;1.40;;;0.35;;
51738;SDS011;37815;52.692;6.226;2024-01-15T03:15:15;2.03;;;0.50;;
51738;SDS011;37815;52.692;6.226;2024-01-15T03:20:16;0.52;;;0.20;;
51738;SDS011;37815;52.692;6.226;2024-01-15T03:25:16;1.23;;;0.35;;
51738;SDS011;37815;52.692;6.226;2024-01-15T03:30:17;1.33;;;0.50;;
51738;SDS011;37815;52.692;6.226;2024-01-15T03:35:17;0.77;;;0.28;;
51738;SDS011;37815;52.692;6.226;2024-01-15T03:40:18;1.15;;;0.30;;
51738;SDS011;37815;52.692;6.226;2024-01-15T03:45:19;1.15;;;0.30;;
51738;SDS011;37815;52.692;6.226;2024-01-15T03:50:20;1.13;;;0.40;;
51738;SDS011;37815;52.692;6.226;2024-01-15T03:55:21;0.98;;;0.17;;
51738;SDS011;37815;52.692;6.226;2024-01-15T04:00:22;0.77;;;0.20;;
51738;SDS011;37815;52.692;6.226;2024-01-15T04:05:22;1.17;;;0.22;;
51738;SDS011;37815;52.692;6.226;2024-01-15T04:10:23;1.48;;;0.40;;
51738;SDS011;37815;52.692;6.226;2024-01-15T04:15:23;2.03;;;0.32;;
51738;SDS011;37815;52.692;6.226;2024-01-15T04:20:24;1.15;;;0.25;;
51738;SDS011;37815;52.692;6.226;2024-01-15T04:25:25;0.70;;;0.30;;
51738;SDS011;37815;52.692;6.226;2024-01-15T04:30:25;0.60;;;0.30;;
51738;SDS011;37815;52.692;6.226;2024-01-15T04:35:26;1.30;;;0.40;;
51738;SDS011;37815;52.692;6.226;2024-01-15T04:40:26;0.63;;;0.30;;
51738;SDS011;37815;52.692;6.226;2024-01-15T04:45:27;0.20;;;0.10;;
51738;SDS011;37815;52.692;6.226;2024-01-15T04:50:28;0.22;;;0.20;;
51738;SDS011;37815;52.692;6.226;2024-01-15T04:55:29;1.63;;;0.55;;
51738;SDS011;37815;52.692;6.226;2024-01-15T05:00:29;0.43;;;0.20;;
51738;SDS011;37815;52.692;6.226;2024-01-15T05:05:30;1.70;;;0.20;;
51738;SDS011;37815;52.692;6.226;2024-01-15T05:10:30;2.10;;;0.40;;
51738;SDS011;37815;52.692;6.226;2024-01-15T05:15:31;2.92;;;0.38;;
51738;SDS011;37815;52.692;6.226;2024-01-15T05:20:32;1.52;;;0.40;;
51738;SDS011;37815;52.692;6.226;2024-01-15T05:25:32;0.52;;;0.10;;
51738;SDS011;37815;52.692;6.226;2024-01-15T05:30:33;0.82;;;0.25;;
51738;SDS011;37815;52.692;6.226;2024-01-15T05:35:34;1.30;;;0.10;;
51738;SDS011;37815;52.692;6.226;2024-01-15T05:40:34;1.17;;;0.30;;
51738;SDS011;37815;52.692;6.226;2024-01-15T05:45:35;1.27;;;0.22;;
51738;SDS011;37815;52.692;6.226;2024-01-15T05:50:36;2.38;;;0.30;;
51738;SDS011;37815;52.692;6.226;2024-01-15T05:55:36;1.85;;;0.38;;
51738;SDS011;37815;52.692;6.226;2024-01-15T06:00:38;0.63;;;0.30;;
51738;SDS011;37815;52.692;6.226;2024-01-15T06:05:38;0.43;;;0.17;;
51738;SDS011;37815;52.692;6.226;2024-01-15T06:10:39;1.30;;;0.40;;
51738;SDS011;37815;52.692;6.226;2024-01-15T06:15:40;1.83;;;0.20;;
51738;SDS011;37815;52.692;6.226;2024-01-15T06:20:40;0.85;;;0.20;;
51738;SDS011;37815;52.692;6.226;2024-01-15T06:25:41;0.40;;;0.20;;
51738;SDS011;37815;52.692;6.226;2024-01-15T06:30:42;1.10;;;0.30;;
51738;SDS011;37815;52.692;6.226;2024-01-15T06:35:42;1.52;;;0.45;;
51738;SDS011;37815;52.692;6.226;2024-01-15T06:40:43;0.13;;;0.10;;
51738;SDS011;37815;52.692;6.226;2024-01-15T06:45:45;1.13;;;0.35;;
51738;SDS011;37815;52.692;6.226;2024-01-15T06:50:46;2.58;;;0.25;;
51738;SDS011;37815;52.692;6.226;2024-01-15T06:55:46;2.20;;;0.40;;
51738;SDS011;37815;52.692;6.226;2024-01-15T07:00:47;1.15;;;0.22;;
51738;SDS011;37815;52.692;6.226;2024-01-15T07:05:47;0.30;;;0.20;;
51738;SDS011;37815;52.692;6.226;2024-01-15T07:10:48;1.05;;;0.20;;
51738;SDS011;37815;52.692;6.226;2024-01-15T07:15:48;1.38;;;0.30;;
51738;SDS011;37815;52.692;6.226;2024-01-15T07:20:50;0.50;;;0.15;;
51738;SDS011;37815;52.692;6.226;2024-01-15T07:25:51;2.35;;;0.40;;
51738;SDS011;37815;52.692;6.226;2024-01-15T07:30:51;0.52;;;0.20;;
51738;SDS011;37815;52.692;6.226;2024-01-15T07:35:52;2.42;;;0.50;;
51738;SDS011;37815;52.692;6.226;2024-01-15T07:40:52;2.30;;;0.30;;
51738;SDS011;37815;52.692;6.226;2024-01-15T07:45:53;0.57;;;0.35;;
51738;SDS011;37815;52.692;6.226;2024-01-15T07:50:54;1.65;;;0.30;;
51738;SDS011;37815;52.692;6.226;2024-01-15T07:55:54;0.35;;;0.20;;
51738;SDS011;37815;52.692;6.226;2024-01-15T08:00:55;2.15;;;0.28;;
51738;SDS011;37815;52.692;6.226;2024-01-15T08:05:56;0.40;;;0.20;;
51738;SDS011;37815;52.692;6.226;2024-01-15T08:10:58;1.65;;;0.30;;
51738;SDS011;37815;52.692;6.226;2024-01-15T08:15:59;1.85;;;0.40;;
51738;SDS011;37815;52.692;6.226;2024-01-15T08:20:59;4.57;;;0.63;;
51738;SDS011;37815;52.692;6.226;2024-01-15T08:26:00;2.75;;;0.40;;
51738;SDS011;37815;52.692;6.226;2024-01-15T08:31:00;0.90;;;0.30;;
51738;SDS011;37815;52.692;6.226;2024-01-15T08:36:01;0.30;;;0.22;;
51738;SDS011;37815;52.692;6.226;2024-01-15T08:41:02;0.93;;;0.10;;
51738;SDS011;37815;52.692;6.226;2024-01-15T08:46:03;2.25;;;0.20;;
51738;SDS011;37815;52.692;6.226;2024-01-15T08:51:03;0.57;;;0.30;;
51738;SDS011;37815;52.692;6.226;2024-01-15T08:56:04;1.13;;;0.22;;
51738;SDS011;37815;52.692;6.226;2024-01-15T09:01:06;2.95;;;0.25;;
51738;SDS011;37815;52.692;6.226;2024-01-15T09:06:06;0.30;;;0.20;;
51738;SDS011;37815;52.692;6.226;2024-01-15T09:11:07;0.60;;;0.30;;
51738;SDS011;37815;52.692;6.226;2024-01-15T09:16:07;0.47;;;0.30;;
51738;SDS011;37815;52.692;6.226;2024-01-15T09:21:08;0.30;;;0.20;;
51738;SDS011;37815;52.692;6.226;2024-01-15T09:26:08;1.60;;;0.40;;
51738;SDS011;37815;52.692;6.226;2024-01-15T09:31:09;0.82;;;0.30;;
51738;SDS011;37815;52.692;6.226;2024-01-15T09:36:09;1.60;;;0.30;;
51738;SDS011;37815;52.692;6.226;2024-01-15T09:41:10;2.78;;;0.47;;
51738;SDS011;37815;52.692;6.226;2024-01-15T09:46:11;1.65;;;0.40;;
51738;SDS011;37815;52.692;6.226;2024-01-15T09:51:12;1.20;;;0.38;;
51738;SDS011;37815;52.692;6.226;2024-01-15T09:56:13;1.40;;;0.30;;
51738;SDS011;37815;52.692;6.226;2024-01-15T10:01:16;2.03;;;0.40;;
51738;SDS011;37815;52.692;6.226;2024-01-15T10:06:17;2.30;;;0.35;;
51738;SDS011;37815;52.692;6.226;2024-01-15T10:11:18;1.85;;;0.40;;
51738;SDS011;37815;52.692;6.226;2024-01-15T10:16:19;1.50;;;0.40;;
51738;SDS011;37815;52.692;6.226;2024-01-15T10:21:20;1.52;;;0.40;;
51738;SDS011;37815;52.692;6.226;2024-01-15T10:26:24;2.65;;;0.40;;
51738;SDS011;37815;52.692;6.226;2024-01-15T10:31:26;2.63;;;0.50;;
51738;SDS011;37815;52.692;6.226;2024-01-15T10:36:27;0.70;;;0.50;;
51738;SDS011;37815;52.692;6.226;2024-01-15T10:41:27;2.10;;;0.50;;
51738;SDS011;37815;52.692;6.226;2024-01-15T10:46:29;3.40;;;0.60;;
51738;SDS011;37815;52.692;6.226;2024-01-15T10:51:31;2.92;;;0.50;;
51738;SDS011;37815;52.692;6.226;2024-01-15T10:56:32;1.17;;;0.40;;
51738;SDS011;37815;52.692;6.226;2024-01-15T11:01:36;3.17;;;0.75;;
51738;SDS011;37815;52.692;6.226;2024-01-15T11:06:44;1.08;;;0.40;;
51738;SDS011;37815;52.692;6.226;2024-01-15T11:11:46;0.98;;;0.30;;
51738;SDS011;37815;52.692;6.226;2024-01-15T11:16:56;3.00;;;0.50;;
51738;SDS011;37815;52.692;6.226;2024-01-15T11:21:59;1.15;;;0.35;;
51738;SDS011;37815;52.692;6.226;2024-01-15T11:26:59;0.43;;;0.22;;
51738;SDS011;37815;52.692;6.226;2024-01-15T11:32:07;1.33;;;0.45;;
51738;SDS011;37815;52.692;6.226;2024-01-15T11:37:08;4.63;;;0.50;;
51738;SDS011;37815;52.692;6.226;2024-01-15T11:42:11;3.15;;;0.40;;
51738;SDS011;37815;52.692;6.226;2024-01-15T11:47:12;1.05;;;0.40;;
51738;SDS011;37815;52.692;6.226;2024-01-15T11:52:14;0.75;;;0.47;;
51738;SDS011;37815;52.692;6.226;2024-01-15T11:57:18;1.08;;;0.43;;
51738;SDS011;37815;52.692;6.226;2024-01-15T12:02:27;1.17;;;0.40;;
51738;SDS011;37815;52.692;6.226;2024-01-15T12:07:27;3.70;;;0.70;;
51738;SDS011;37815;52.692;6.226;2024-01-15T12:17:50;2.03;;;0.85;;
51738;SDS011;37815;52.692;6.226;2024-01-15T12:22:51;2.30;;;0.80;;
51738;SDS011;37815;52.692;6.226;2024-01-15T12:27:52;1.40;;;0.47;;
51738;SDS011;37815;52.692;6.226;2024-01-15T12:32:53;0.98;;;0.60;;
51738;SDS011;37815;52.692;6.226;2024-01-15T12:37:54;1.08;;;0.25;;
51738;SDS011;37815;52.692;6.226;2024-01-15T12:42:55;1.70;;;0.50;;
51738;SDS011;37815;52.692;6.226;2024-01-15T12:47:56;2.40;;;0.73;;
51738;SDS011;37815;52.692;6.226;2024-01-15T12:52:57;0.95;;;0.28;;
51738;SDS011;37815;52.692;6.226;2024-01-15T12:57:59;2.63;;;0.30;;
51738;SDS011;37815;52.692;6.226;2024-01-15T13:03:00;2.58;;;0.40;;
51738;SDS011;37815;52.692;6.226;2024-01-15T13:08:03;1.48;;;0.45;;
51738;SDS011;37815;52.692;6.226;2024-01-15T13:13:04;0.55;;;0.20;;
51738;SDS011;37815;52.692;6.226;2024-01-15T13:18:05;3.60;;;0.20;;
51738;SDS011;37815;52.692;6.226;2024-01-15T13:23:06;1.38;;;0.47;;
51738;SDS011;37815;52.692;6.226;2024-01-15T13:28:07;2.08;;;0.52;;
51738;SDS011;37815;52.692;6.226;2024-01-15T13:33:10;0.90;;;0.35;;
51738;SDS011;37815;52.692;6.226;2024-01-15T13:38:11;3.35;;;0.70;;
51738;SDS011;37815;52.692;6.226;2024-01-15T13:43:12;1.70;;;0.30;;
51738;SDS011;37815;52.692;6.226;2024-01-15T13:48:14;0.75;;;0.40;;
51738;SDS011;37815;52.692;6.226;2024-01-15T13:53:14;1.70;;;0.50;;
51738;SDS011;37815;52.692;6.226;2024-01-15T13:58:15;1.25;;;0.28;;
51738;SDS011;37815;52.692;6.226;2024-01-15T14:03:17;1.67;;;0.60;;
51738;SDS011;37815;52.692;6.226;2024-01-15T14:08:19;2.13;;;0.30;;
51738;SDS011;37815;52.692;6.226;2024-01-15T14:13:19;1.80;;;0.43;;
51738;SDS011;37815;52.692;6.226;2024-01-15T14:18:20;0.88;;;0.80;;
51738;SDS011;37815;52.692;6.226;2024-01-15T14:23:21;1.25;;;1.02;;
51738;SDS011;37815;52.692;6.226;2024-01-15T14:28:23;1.90;;;0.40;;
51738;SDS011;37815;52.692;6.226;2024-01-15T14:33:23;2.25;;;0.40;;
51738;SDS011;37815;52.692;6.226;2024-01-15T14:38:24;4.18;;;0.93;;
51738;SDS011;37815;52.692;6.226;2024-01-15T14:43:24;3.58;;;0.90;;
51738;SDS011;37815;52.692;6.226;2024-01-15T14:48:25;3.65;;;0.43;;
51738;SDS011;37815;52.692;6.226;2024-01-15T14:53:26;2.53;;;1.08;;
51738;SDS011;37815;52.692;6.226;2024-01-15T14:58:26;2.92;;;1.08;;
51738;SDS011;37815;52.692;6.226;2024-01-15T15:03:27;5.35;;;1.10;;
51738;SDS011;37815;52.692;6.226;2024-01-15T15:08:28;2.28;;;0.77;;
51738;SDS011;37815;52.692;6.226;2024-01-15T15:13:28;2.47;;;1.02;;
51738;SDS011;37815;52.692;6.226;2024-01-15T15:18:29;3.95;;;1.30;;
51738;SDS011;37815;52.692;6.226;2024-01-15T15:23:30;5.97;;;0.80;;
51738;SDS011;37815;52.692;6.226;2024-01-15T15:28:30;2.17;;;0.77;;
51738;SDS011;37815;52.692;6.226;2024-01-15T15:33:36;3.90;;;0.88;;
51738;SDS011;37815;52.692;6.226;2024-01-15T15:38:37;1.88;;;0.40;;
51738;SDS011;37815;52.692;6.226;2024-01-15T15:43:38;2.38;;;0.90;;
51738;SDS011;37815;52.692;6.226;2024-01-15T15:48:38;3.55;;;0.95;;
51738;SDS011;37815;52.692;6.226;2024-01-15T15:53:39;2.63;;;0.73;;
51738;SDS011;37815;52.692;6.226;2024-01-15T15:58:40;2.13;;;0.85;;
51738;SDS011;37815;52.692;6.226;2024-01-15T16:03:42;3.92;;;0.88;;
51738;SDS011;37815;52.692;6.226;2024-01-15T16:08:42;2.97;;;0.80;;
51738;SDS011;37815;52.692;6.226;2024-01-15T16:13:44;3.15;;;0.98;;
51738;SDS011;37815;52.692;6.226;2024-01-15T16:18:44;2.55;;;0.93;;
51738;SDS011;37815;52.692;6.226;2024-01-15T16:23:45;1.77;;;0.50;;
51738;SDS011;37815;52.692;6.226;2024-01-15T16:28:45;1.83;;;0.75;;
51738;SDS011;37815;52.692;6.226;2024-01-15T16:33:46;3.40;;;0.85;;
51738;SDS011;37815;52.692;6.226;2024-01-15T16:38:47;2.13;;;0.98;;
51738;SDS011;37815;52.692;6.226;2024-01-15T16:43:47;2.80;;;1.00;;
51738;SDS011;37815;52.692;6.226;2024-01-15T16:48:48;5.47;;;1.40;;
51738;SDS011;37815;52.692;6.226;2024-01-15T16:53:49;4.38;;;1.30;;
51738;SDS011;37815;52.692;6.226;2024-01-15T16:58:49;1.73;;;0.95;;
51738;SDS011;37815;52.692;6.226;2024-01-15T17:03:51;1.33;;;0.90;;
51738;SDS011;37815;52.692;6.226;2024-01-15T17:08:52;3.28;;;1.25;;
51738;SDS011;37815;52.692;6.226;2024-01-15T17:13:53;3.85;;;1.40;;
51738;SDS011;37815;52.692;6.226;2024-01-15T17:18:53;2.00;;;0.95;;
51738;SDS011;37815;52.692;6.226;2024-01-15T17:23:54;3.58;;;1.00;;
51738;SDS011;37815;52.692;6.226;2024-01-15T17:28:54;3.90;;;0.70;;
51738;SDS011;37815;52.692;6.226;2024-01-15T17:33:55;2.22;;;0.77;;
51738;SDS011;37815;52.692;6.226;2024-01-15T17:38:55;3.13;;;0.90;;
51738;SDS011;37815;52.692;6.226;2024-01-15T17:43:59;3.35;;;1.00;;
51738;SDS011;37815;52.692;6.226;2024-01-15T17:49:00;2.80;;;0.85;;
51738;SDS011;37815;52.692;6.226;2024-01-15T17:54:04;3.10;;;1.17;;
51738;SDS011;37815;52.692;6.226;2024-01-15T17:59:08;3.50;;;1.05;;
51738;SDS011;37815;52.692;6.226;2024-01-15T18:04:09;1.58;;;1.10;;
51738;SDS011;37815;52.692;6.226;2024-01-15T18:09:09;4.85;;;1.10;;
51738;SDS011;37815;52.692;6.226;2024-01-15T18:14:12;2.58;;;0.90;;
51738;SDS011;37815;52.692;6.226;2024-01-15T18:19:12;2.45;;;0.65;;
51738;SDS011;37815;52.692;6.226;2024-01-15T18:24:13;2.40;;;0.95;;
51738;SDS011;37815;52.692;6.226;2024-01-15T18:29:13;1.35;;;0.80;;
51738;SDS011;37815;52.692;6.226;2024-01-15T18:34:14;1.85;;;0.90;;
51738;SDS011;37815;52.692;6.226;2024-01-15T18:39:15;1.05;;;0.60;;
51738;SDS011;37815;52.692;6.226;2024-01-15T18:44:16;2.28;;;0.43;;
51738;SDS011;37815;52.692;6.226;2024-01-15T18:49:17;2.47;;;0.70;;
51738;SDS011;37815;52.692;6.226;2024-01-15T18:54:19;3.15;;;0.90;;
51738;SDS011;37815;52.692;6.226;2024-01-15T18:59:20;2.80;;;0.90;;
51738;SDS011;37815;52.692;6.226;2024-01-15T19:04:20;2.15;;;0.70;;
51738;SDS011;37815;52.692;6.226;2024-01-15T19:09:21;1.35;;;0.68;;
51738;SDS011;37815;52.692;6.226;2024-01-15T19:14:21;2.58;;;0.82;;
51738;SDS011;37815;52.692;6.226;2024-01-15T19:19:22;4.85;;;0.73;;
51738;SDS011;37815;52.692;6.226;2024-01-15T19:24:23;1.40;;;0.70;;
51738;SDS011;37815;52.692;6.226;2024-01-15T19:29:23;0.82;;;0.63;;
51738;SDS011;37815;52.692;6.226;2024-01-15T19:34:27;0.90;;;0.60;;
51738;SDS011;37815;52.692;6.226;2024-01-15T19:39:28;1.90;;;0.63;;
51738;SDS011;37815;52.692;6.226;2024-01-15T19:44:29;1.05;;;0.50;;
51738;SDS011;37815;52.692;6.226;2024-01-15T19:49:30;2.47;;;0.70;;
51738;SDS011;37815;52.692;6.226;2024-01-15T19:54:31;4.18;;;0.98;;
51738;SDS011;37815;52.692;6.226;2024-01-15T19:59:32;1.83;;;0.95;;
51738;SDS011;37815;52.692;6.226;2024-01-15T20:04:32;1.05;;;0.70;;
51738;SDS011;37815;52.692;6.226;2024-01-15T20:09:33;5.32;;;0.93;;
51738;SDS011;37815;52.692;6.226;2024-01-15T20:14:34;1.27;;;0.60;;
51738;SDS011;37815;52.692;6.226;2024-01-15T20:19:35;1.77;;;0.57;;
51738;SDS011;37815;52.692;6.226;2024-01-15T20:24:35;1.63;;;0.40;;
51738;SDS011;37815;52.692;6.226;2024-01-15T20:29:36;1.13;;;0.43;;
51738;SDS011;37815;52.692;6.226;2024-01-15T20:34:37;1.95;;;0.70;;
51738;SDS011;37815;52.692;6.226;2024-01-15T20:39:38;1.35;;;0.70;;
51738;SDS011;37815;52.692;6.226;2024-01-15T20:44:38;2.22;;;0.65;;
51738;SDS011;37815;52.692;6.226;2024-01-15T20:49:40;1.02;;;0.60;;
51738;SDS011;37815;52.692;6.226;2024-01-15T20:54:41;1.67;;;0.73;;
51738;SDS011;37815;52.692;6.226;2024-01-15T20:59:41;1.75;;;0.68;;
51738;SDS011;37815;52.692;6.226;2024-01-15T21:04:42;2.28;;;0.93;;
51738;SDS011;37815;52.692;6.226;2024-01-15T21:09:42;2.08;;;0.73;;
51738;SDS011;37815;52.692;6.226;2024-01-15T21:14:43;1.00;;;0.60;;
51738;SDS011;37815;52.692;6.226;2024-01-15T21:19:43;1.00;;;0.60;;
51738;SDS011;37815;52.692;6.226;2024-01-15T21:24:44;2.38;;;0.85;;
51738;SDS011;37815;52.692;6.226;2024-01-15T21:29:45;1.05;;;0.73;;
51738;SDS011;37815;52.692;6.226;2024-01-15T21:34:45;2.20;;;0.80;;
51738;SDS011;37815;52.692;6.226;2024-01-15T21:39:47;3.33;;;1.02;;
51738;SDS011;37815;52.692;6.226;2024-01-15T21:44:47;1.42;;;0.77;;
51738;SDS011;37815;52.692;6.226;2024-01-15T21:49:48;1.02;;;0.60;;
51738;SDS011;37815;52.692;6.226;2024-01-15T21:54:49;1.67;;;0.95;;
51738;SDS011;37815;52.692;6.226;2024-01-15T21:59:49;1.20;;;0.70;;
51738;SDS011;37815;52.692;6.226;2024-01-15T22:04:50;1.17;;;0.68;;
51738;SDS011;37815;52.692;6.226;2024-01-15T22:09:50;2.72;;;0.70;;
51738;SDS011;37815;52.692;6.226;2024-01-15T22:14:51;2.10;;;0.73;;
51738;SDS011;37815;52.692;6.226;2024-01-15T22:19:51;3.10;;;0.77;;
51738;SDS011;37815;52.692;6.226;2024-01-15T22:24:52;2.95;;;0.60;;
51738;SDS011;37815;52.692;6.226;2024-01-15T22:29:52;0.50;;;0.40;;
51738;SDS011;37815;52.692;6.226;2024-01-15T22:34:53;2.45;;;0.73;;
51738;SDS011;37815;52.692;6.226;2024-01-15T22:39:54;3.20;;;0.80;;
51738;SDS011;37815;52.692;6.226;2024-01-15T22:44:54;1.48;;;0.68;;
51738;SDS011;37815;52.692;6.226;2024-01-15T22:49:55;1.42;;;0.60;;
51738;SDS011;37815;52.692;6.226;2024-01-15T22:54:56;3.75;;;0.60;;
51738;SDS011;37815;52.692;6.226;2024-01-15T22:59:56;2.55;;;0.60;;
51738;SDS011;37815;52.692;6.226;2024-01-15T23:04:57;1.77;;;0.60;;
51738;SDS011;37815;52.692;6.226;2024-01-15T23:09:58;1.73;;;0.60;;
51738;SDS011;37815;52.692;6.226;2024-01-15T23:14:58;2.08;;;0.60;;
51738;SDS011;37815;52.692;6.226;2024-01-15T23:19:59;2.72;;;0.88;;
51738;SDS011;37815;52.692;6.226;2024-01-15T23:25:00;1.20;;;0.60;;
51738;SDS011;37815;52.692;6.226;2024-01-15T23:30:00;1.40;;;0.60;;
51738;SDS011;37815;52.692;6.226;2024-01-15T23:35:04;2.55;;;0.70;;
51738;SDS011;37815;52.692;6.226;2024-01-15T23:40:04;1.17;;;0.60;;
51738;SDS011;37815;52.692;6.226;2024-01-15T23:45:06;2.45;;;0.50;;
51738;SDS011;37815;52.692;6.226;2024-01-15T23:50:07;1.55;;;0.68;;
51738;SDS011;37815;52.692;6.226;2024-01-15T23:55:07;1.23;;;0.60;;
